Portada
METAR-TAF:

METAR-TAF

Aeroports :

Nebraska City Municipal Airport

Nebraska City, Nebraska, Estats Units d'Amèrica

latitud: 40-36N, longitud: 095-51W, altitud: 354 m

Observació

L'informe es va fer fa 25 minuts, a les 22:15 UTC
Vent 15 kt del Nord/Nord-Oest amb ràfegues de 20 kt
Temperatura 2°C
Humitat 87%
Pressió 1021 hPa
Visibilitat: 16.1 km
Cel cobert a una alçada de 1800 ft

METAR: KAFK 212215Z AUTO 34015G20KT 10SM OVC018 02/00 A3014 RMK AO2 T00230001

Hora: 16:40 (22:40 UTC)


TAF: manca

Observacions i pronòstics meteorològics de més de 4000 aeroports (METAR i TAF).

Les estacions disponibles són els punts grocs i vermells al mapa.

Posi el ratolí al punt desitjat per veure el nom de l'estació.

Feu clic per veure les observacions i els pronòstics meteorològics.

Per canviar el mapa: feu clic els botons verds amb una creu de color negre per apropar; al botó verd amb un guió per allunyar la imatge; o en les fletxes verdes per a mapes adjacents.


METAR-TAF: